createdAt,value
2023-05-14T00:01:20.568Z,99996.69
2023-05-14T00:03:47.468Z,100008.22
2023-05-14T00:06:15.079Z,100007.88
2023-05-14T00:08:41.855Z,100008.22
2023-05-14T00:11:09.105Z,100010.53
2023-05-14T00:13:36.405Z,100006.03
2023-05-14T00:16:03.307Z,99996.34
2023-05-14T00:18:30.450Z,99998.00
2023-05-14T00:20:57.598Z,99998.31
2023-05-14T00:23:24.475Z,99999.34
2023-05-14T00:25:51.274Z,99997.75
2023-05-14T00:28:18.108Z,99997.09
2023-05-14T00:30:45.068Z,99992.25
2023-05-14T00:33:11.948Z,99990.75
2023-05-14T00:35:38.761Z,99982.22
2023-05-14T00:38:06.134Z,99984.34
2023-05-14T00:40:33.020Z,99982.69
2023-05-14T00:43:00.457Z,99979.50
2023-05-14T00:45:27.434Z,99987.00
2023-05-14T00:47:54.908Z,99980.50
2023-05-14T00:50:22.237Z,99975.28
2023-05-14T00:52:49.542Z,99982.50
2023-05-14T00:55:16.728Z,99980.28
2023-05-14T00:57:44.038Z,99977.56
2023-05-14T01:00:11.138Z,99978.88
2023-05-14T01:02:38.254Z,99968.00
2023-05-14T01:05:05.439Z,99972.81
2023-05-14T01:07:35.252Z,99973.41
2023-05-14T01:10:28.124Z,99971.75
2023-05-14T01:12:55.090Z,99973.38
2023-05-14T01:15:24.242Z,99972.22
2023-05-14T01:17:56.676Z,99971.69
2023-05-14T01:20:23.902Z,99972.38
2023-05-14T01:22:50.865Z,99969.69
2023-05-14T01:25:17.869Z,99964.53
2023-05-14T01:28:15.562Z,99962.09
2023-05-14T01:30:58.268Z,99955.88
2023-05-14T01:33:26.173Z,99956.94
2023-05-14T01:35:54.321Z,99957.91
2023-05-14T01:38:21.964Z,99958.91
2023-05-14T01:40:49.280Z,99961.59
2023-05-14T01:43:16.436Z,99958.09
2023-05-14T01:45:43.934Z,99956.66
2023-05-14T01:48:11.087Z,99960.78
2023-05-14T01:50:38.175Z,99950.72
2023-05-14T01:53:04.939Z,99954.22
2023-05-14T01:55:31.848Z,99946.38
2023-05-14T01:57:58.690Z,99946.16
2023-05-14T02:00:28.249Z,99945.00
2023-05-14T02:02:55.098Z,99942.34
2023-05-14T02:05:23.510Z,99946.38
2023-05-14T02:07:50.245Z,99950.03
2023-05-14T02:10:17.058Z,99944.31
2023-05-14T02:12:49.591Z,99957.75
2023-05-14T02:15:16.816Z,99959.13
2023-05-14T02:17:43.694Z,99958.06
2023-05-14T02:20:11.515Z,99957.59
2023-05-14T02:22:46.269Z,99950.06
2023-05-14T02:25:13.168Z,99946.69
2023-05-14T02:27:40.237Z,99944.88
2023-05-14T02:30:07.698Z,99948.69
2023-05-14T02:32:34.762Z,99944.78
2023-05-14T02:35:01.898Z,99942.75
2023-05-14T02:37:28.789Z,99937.94
2023-05-14T02:39:55.540Z,99939.38
2023-05-14T02:42:22.890Z,99953.66
2023-05-14T02:44:49.796Z,99954.50
2023-05-14T02:47:16.603Z,99951.06
2023-05-14T02:49:43.473Z,99958.63
2023-05-14T02:52:10.278Z,99957.53
2023-05-14T02:54:37.096Z,99951.22
2023-05-14T02:57:03.988Z,99955.47
2023-05-14T02:59:31.561Z,99960.16
2023-05-14T03:01:58.882Z,99960.28
2023-05-14T03:04:26.016Z,99959.81
2023-05-14T03:06:52.783Z,99963.56
2023-05-14T03:09:20.070Z,99959.75
2023-05-14T03:11:46.811Z,99955.84
2023-05-14T03:14:13.624Z,99959.00
2023-05-14T03:16:42.278Z,99962.78
2023-05-14T03:19:09.950Z,99959.00
2023-05-14T03:21:36.887Z,99968.78
2023-05-14T03:24:03.748Z,99970.25
2023-05-14T03:26:30.469Z,99974.28
2023-05-14T03:28:57.225Z,99969.94
2023-05-14T03:31:24.988Z,99964.06
2023-05-14T03:33:51.969Z,99968.16
2023-05-14T03:36:18.778Z,99962.25
2023-05-14T03:38:47.937Z,99960.72
2023-05-14T03:41:15.477Z,99961.13
2023-05-14T03:43:42.740Z,99965.69
2023-05-14T03:46:09.579Z,99958.41
2023-05-14T03:48:36.479Z,99959.69
2023-05-14T03:51:04.625Z,99958.69
2023-05-14T03:53:31.377Z,99950.88
2023-05-14T03:55:58.143Z,99949.47
2023-05-14T03:58:25.761Z,99954.22
2023-05-14T04:00:53.714Z,99950.28
2023-05-14T04:03:20.841Z,99953.47
2023-05-14T04:05:47.706Z,99954.78
2023-05-14T04:08:14.407Z,99960.50
2023-05-14T04:10:42.759Z,99954.78
2023-05-14T04:13:09.561Z,99957.72
2023-05-14T04:15:39.415Z,99959.47
2023-05-14T04:18:06.275Z,99962.97
2023-05-14T04:20:33.117Z,99951.47
2023-05-14T04:23:00.089Z,99960.03
2023-05-14T04:25:26.970Z,99954.84
2023-05-14T04:27:53.792Z,99941.94
2023-05-14T04:30:21.106Z,99947.41
2023-05-14T04:32:48.061Z,99946.94
2023-05-14T04:35:14.821Z,99944.56
2023-05-14T04:37:41.682Z,99957.16
2023-05-14T04:40:11.272Z,99953.81
2023-05-14T04:42:38.762Z,99969.44
2023-05-14T04:45:06.543Z,99956.72
2023-05-14T04:47:33.337Z,99964.59
2023-05-14T04:50:00.181Z,99958.28
2023-05-14T04:52:27.107Z,99961.53
2023-05-14T04:54:54.110Z,99961.28
2023-05-14T04:57:21.159Z,99961.59
2023-05-14T04:59:48.000Z,99958.81
2023-05-14T05:02:14.756Z,99956.84
2023-05-14T05:04:41.560Z,99952.50
2023-05-14T05:07:08.347Z,99962.34
2023-05-14T05:09:35.062Z,99961.34
2023-05-14T05:12:02.001Z,99958.75
2023-05-14T05:14:28.895Z,99959.75
2023-05-14T05:16:55.804Z,99958.81
2023-05-14T05:19:29.141Z,99967.75
2023-05-14T05:22:02.861Z,99956.78
2023-05-14T05:24:29.577Z,99956.91
2023-05-14T05:26:56.607Z,99956.09
2023-05-14T05:29:24.952Z,99957.09
2023-05-14T05:31:51.801Z,99960.72
2023-05-14T05:34:19.507Z,99949.59
2023-05-14T05:36:46.249Z,99951.00
2023-05-14T05:39:12.960Z,99954.50
2023-05-14T05:41:39.650Z,99949.38
2023-05-14T05:44:06.671Z,99948.91
2023-05-14T05:46:33.412Z,99947.19
2023-05-14T05:49:00.217Z,99951.19
2023-05-14T05:51:26.899Z,99937.25
2023-05-14T05:53:53.636Z,99952.56
2023-05-14T05:56:21.115Z,99948.41
2023-05-14T05:58:48.038Z,99944.91
2023-05-14T06:01:14.827Z,99938.44
2023-05-14T06:03:41.938Z,99938.78
2023-05-14T06:06:09.239Z,99937.38
2023-05-14T06:08:36.142Z,99941.75
2023-05-14T06:11:02.889Z,99933.41
2023-05-14T06:13:29.604Z,99940.72
2023-05-14T06:15:56.316Z,99941.94
2023-05-14T06:18:23.084Z,99933.91
2023-05-14T06:20:49.906Z,99944.31
2023-05-14T06:23:16.731Z,99935.75
2023-05-14T06:25:43.578Z,99927.22
2023-05-14T06:28:10.482Z,99932.63
2023-05-14T06:30:37.260Z,99934.91
2023-05-14T06:33:04.119Z,99927.91
2023-05-14T06:35:31.134Z,99931.94
2023-05-14T06:37:57.910Z,99916.59
2023-05-14T06:40:24.953Z,99909.25
2023-05-14T06:42:51.966Z,99910.31
2023-05-14T06:45:19.739Z,99919.88
2023-05-14T06:47:46.526Z,99907.16
2023-05-14T06:50:13.356Z,99909.69
2023-05-14T06:52:40.112Z,99910.72
2023-05-14T06:55:07.302Z,99909.91
2023-05-14T06:57:34.693Z,99907.06
2023-05-14T07:00:03.291Z,99911.25
2023-05-14T07:02:32.266Z,99912.16
2023-05-14T07:04:59.105Z,99900.56
2023-05-14T07:07:25.865Z,99899.09
2023-05-14T07:09:52.639Z,99906.25
2023-05-14T07:12:19.369Z,99902.13
2023-05-14T07:14:46.594Z,99903.47
2023-05-14T07:17:13.320Z,99903.47
2023-05-14T07:19:40.407Z,99902.47
2023-05-14T07:22:07.183Z,99888.91
2023-05-14T07:24:33.884Z,99881.72
2023-05-14T07:27:01.855Z,99883.41
2023-05-14T07:29:30.115Z,99881.94
2023-05-14T07:31:56.817Z,99885.09
2023-05-14T07:34:23.526Z,99880.63
2023-05-14T07:36:50.322Z,99879.13
2023-05-14T07:39:17.199Z,99874.59
2023-05-14T07:41:44.163Z,99883.97
2023-05-14T07:44:10.899Z,99878.63
2023-05-14T07:46:37.668Z,99879.47
2023-05-14T07:49:04.466Z,99874.25
2023-05-14T07:51:33.315Z,99866.59
2023-05-14T07:54:00.594Z,99869.59
2023-05-14T07:56:27.346Z,99870.78
2023-05-14T07:58:54.082Z,99875.31
2023-05-14T08:01:20.812Z,99875.69
2023-05-14T08:03:48.417Z,99872.31
2023-05-14T08:06:15.241Z,99878.16
2023-05-14T08:08:41.978Z,99867.13
2023-05-14T08:11:08.803Z,99868.47
2023-05-14T08:13:35.678Z,99861.63
2023-05-14T08:16:02.846Z,99865.31
2023-05-14T08:18:29.620Z,99865.78
2023-05-14T08:20:56.513Z,99857.28
2023-05-14T08:23:23.345Z,99867.50
2023-05-14T08:25:50.414Z,99867.66
2023-05-14T08:28:17.284Z,99858.63
2023-05-14T08:30:44.166Z,99861.97
2023-05-14T08:33:11.014Z,99866.31
2023-05-14T08:35:38.076Z,99863.63
2023-05-14T08:38:04.893Z,99869.50
2023-05-14T08:40:31.899Z,99869.19
2023-05-14T08:42:58.844Z,99866.66
2023-05-14T08:45:30.090Z,99868.53
2023-05-14T08:47:57.711Z,99862.50
2023-05-14T08:50:25.787Z,99863.31
2023-05-14T08:52:53.340Z,99857.97
2023-05-14T08:55:20.377Z,99856.97
2023-05-14T08:57:47.185Z,99862.66
2023-05-14T09:00:15.036Z,99856.44
2023-05-14T09:02:42.557Z,99859.13
2023-05-14T09:05:09.970Z,99862.16
2023-05-14T09:07:36.832Z,99854.09
2023-05-14T09:10:04.136Z,99862.47
2023-05-14T09:12:31.476Z,99854.44
2023-05-14T09:14:58.222Z,99858.63
2023-05-14T09:17:26.905Z,99857.59
2023-05-14T09:19:53.717Z,99854.91
2023-05-14T09:22:20.932Z,99857.91
2023-05-14T09:25:02.588Z,99850.75
2023-05-14T09:27:30.314Z,99858.59
2023-05-14T09:30:04.767Z,99852.41
2023-05-14T09:32:45.852Z,99849.06
2023-05-14T09:35:15.727Z,99848.56
2023-05-14T09:37:43.907Z,99844.84
2023-05-14T09:40:11.997Z,99842.53
2023-05-14T09:42:39.284Z,99844.38
2023-05-14T09:45:08.008Z,99842.50
2023-05-14T09:47:35.063Z,99838.16
2023-05-14T09:50:02.047Z,99841.16
2023-05-14T09:52:28.784Z,99831.75
2023-05-14T09:54:55.571Z,99834.59
2023-05-14T09:57:22.334Z,99828.72
2023-05-14T09:59:49.029Z,99832.41
2023-05-14T10:02:38.321Z,99828.41
2023-05-14T10:05:06.448Z,99829.88
2023-05-14T10:07:53.621Z,99828.22
2023-05-14T10:10:21.902Z,99828.03
2023-05-14T10:12:53.444Z,99833.75
2023-05-14T10:15:24.292Z,99828.19
2023-05-14T10:17:56.436Z,99822.84
2023-05-14T10:20:23.623Z,99823.34
2023-05-14T10:22:51.333Z,99821.97
2023-05-14T10:25:18.279Z,99825.16
2023-05-14T10:27:45.211Z,99817.94
2023-05-14T10:30:12.928Z,99818.31
2023-05-14T10:32:41.874Z,99818.47
2023-05-14T10:35:20.699Z,99815.94
2023-05-14T10:37:47.758Z,99818.78
2023-05-14T10:40:14.604Z,99822.78
2023-05-14T10:42:46.385Z,99828.31
2023-05-14T10:45:14.394Z,99817.25
2023-05-14T10:47:45.834Z,99819.44
2023-05-14T10:50:14.376Z,99821.09
2023-05-14T10:52:44.735Z,99817.44
2023-05-14T10:55:15.387Z,99815.13
2023-05-14T10:57:43.914Z,99819.13
2023-05-14T11:00:11.340Z,99808.06
2023-05-14T11:02:40.276Z,99811.91
2023-05-14T11:05:13.762Z,99813.72
2023-05-14T11:07:42.737Z,99812.94
2023-05-14T11:10:11.567Z,99810.91
2023-05-14T11:12:40.881Z,99809.09
2023-05-14T11:15:09.726Z,99814.41
2023-05-14T11:17:37.760Z,99800.38
2023-05-14T11:20:07.970Z,99793.94
2023-05-14T11:22:35.676Z,99785.91
2023-05-14T11:25:02.499Z,99796.63
2023-05-14T11:27:29.770Z,99790.06
2023-05-14T11:29:56.497Z,99785.22
2023-05-14T11:32:23.819Z,99787.53
2023-05-14T11:34:51.196Z,99780.81
2023-05-14T11:37:18.247Z,99783.50
2023-05-14T11:39:50.561Z,99778.50
2023-05-14T11:42:18.695Z,99779.44
2023-05-14T11:44:50.163Z,99772.72
2023-05-14T11:47:18.410Z,99767.63
2023-05-14T11:49:45.768Z,99769.56
2023-05-14T11:52:14.816Z,99768.44
2023-05-14T11:54:42.957Z,99772.13
2023-05-14T11:57:12.563Z,99762.22
2023-05-14T11:59:39.991Z,99767.78
2023-05-14T12:02:10.740Z,99760.09
2023-05-14T12:04:37.485Z,99755.66
2023-05-14T12:07:15.550Z,99751.31
2023-05-14T12:09:49.240Z,99749.88
2023-05-14T12:12:20.693Z,99752.06
2023-05-14T12:14:48.371Z,99753.09
2023-05-14T12:17:17.407Z,99753.94
2023-05-14T12:19:46.466Z,99754.22
2023-05-14T12:22:31.449Z,99743.72
2023-05-14T12:24:59.318Z,99745.81
2023-05-14T12:27:27.334Z,99744.00
2023-05-14T12:30:20.028Z,99744.31
2023-05-14T12:32:52.740Z,99729.19
2023-05-14T12:35:21.316Z,99730.94
2023-05-14T12:37:48.123Z,99732.16
2023-05-14T12:40:14.907Z,99724.94
2023-05-14T12:42:41.621Z,99735.03
2023-05-14T12:45:08.804Z,99727.63
2023-05-14T12:47:37.049Z,99725.72
2023-05-14T12:50:04.918Z,99724.69
2023-05-14T12:55:01.735Z,99709.41
2023-05-14T12:57:29.791Z,99718.19
2023-05-14T12:59:57.210Z,99707.63
2023-05-14T13:02:23.958Z,99710.69
2023-05-14T13:04:50.756Z,99705.69
2023-05-14T13:07:17.459Z,99708.09
2023-05-14T13:09:44.165Z,99699.88
2023-05-14T13:12:10.939Z,99696.81
2023-05-14T13:14:37.707Z,99695.97
2023-05-14T13:17:05.373Z,99684.06
2023-05-14T13:19:32.126Z,99685.53
2023-05-14T13:21:59.035Z,99683.47
2023-05-14T13:24:25.939Z,99683.47
2023-05-14T13:26:52.662Z,99678.59
2023-05-14T13:29:19.474Z,99678.06
2023-05-14T13:31:46.252Z,99681.72
2023-05-14T13:34:13.109Z,99680.91
2023-05-14T13:36:40.717Z,99671.84
2023-05-14T13:39:07.673Z,99671.50
2023-05-14T13:41:37.956Z,99668.59
2023-05-14T13:44:05.519Z,99661.19
2023-05-14T13:46:32.352Z,99663.72
2023-05-14T13:48:59.118Z,99656.94
2023-05-14T13:51:26.083Z,99654.91
2023-05-14T13:56:19.605Z,99651.50
2023-05-14T13:58:46.342Z,99639.91
2023-05-14T14:01:12.988Z,99634.19
2023-05-14T14:03:39.765Z,99632.78
2023-05-14T14:06:06.431Z,99632.22
2023-05-14T14:08:33.173Z,99622.59
2023-05-14T14:11:00.130Z,99627.97
2023-05-14T14:13:27.887Z,99628.78
2023-05-14T14:15:54.688Z,99615.19
2023-05-14T14:18:21.510Z,99617.31
2023-05-14T14:20:48.399Z,99611.59
2023-05-14T14:23:15.145Z,99606.31
2023-05-14T14:25:42.179Z,99605.53
2023-05-14T14:28:08.844Z,99600.81
2023-05-14T14:30:35.614Z,99599.41
2023-05-14T14:33:02.401Z,99592.19
2023-05-14T14:35:30.663Z,99593.59
2023-05-14T14:37:57.505Z,99592.94
2023-05-14T14:40:24.508Z,99598.53
2023-05-14T14:42:51.262Z,99582.84
2023-05-14T14:45:17.938Z,99585.91
2023-05-14T14:47:46.327Z,99579.72
2023-05-14T14:50:13.548Z,99584.81
2023-05-14T14:52:41.217Z,99576.75
2023-05-14T14:55:08.432Z,99575.56
2023-05-14T14:57:35.318Z,99572.66
2023-05-14T15:00:02.675Z,99577.03
2023-05-14T15:02:29.898Z,99574.09
2023-05-14T15:04:56.761Z,99578.97
2023-05-14T15:07:23.532Z,99573.44
2023-05-14T15:09:50.235Z,99579.63
2023-05-14T15:12:17.076Z,99581.94
2023-05-14T15:14:43.879Z,99576.28
2023-05-14T15:17:10.714Z,99581.66
2023-05-14T15:19:37.519Z,99568.06
2023-05-14T15:22:04.578Z,99573.59
2023-05-14T15:24:31.421Z,99576.13
2023-05-14T15:26:58.293Z,99578.59
2023-05-14T15:29:25.020Z,99576.00
2023-05-14T15:31:51.872Z,99571.06
2023-05-14T15:34:18.585Z,99574.22
2023-05-14T15:36:45.372Z,99574.41
2023-05-14T15:39:12.914Z,99578.69
2023-05-14T15:41:39.820Z,99567.94
2023-05-14T15:44:06.637Z,99575.56
2023-05-14T15:46:33.547Z,99579.44
2023-05-14T15:49:00.416Z,99573.88
2023-05-14T15:51:27.145Z,99568.72
2023-05-14T15:53:54.204Z,99566.03
2023-05-14T15:56:22.167Z,99565.38
2023-05-14T15:58:49.257Z,99562.03
2023-05-14T16:01:16.111Z,99568.22
2023-05-14T16:03:43.040Z,99568.22
2023-05-14T16:06:11.248Z,99570.09
2023-05-14T16:08:38.227Z,99571.97
2023-05-14T16:11:05.479Z,99566.59
2023-05-14T16:13:32.283Z,99569.63
2023-05-14T16:15:59.667Z,99563.59
2023-05-14T16:18:26.728Z,99562.94
2023-05-14T16:20:53.649Z,99558.63
2023-05-14T16:23:20.483Z,99567.13
2023-05-14T16:25:47.252Z,99563.50
2023-05-14T16:28:14.223Z,99565.19
2023-05-14T16:30:41.078Z,99559.34
2023-05-14T16:33:07.932Z,99564.34
2023-05-14T16:35:34.820Z,99558.97
2023-05-14T16:38:01.729Z,99555.28
2023-05-14T16:40:28.593Z,99555.06
2023-05-14T16:42:56.459Z,99552.59
2023-05-14T16:45:26.173Z,99556.75
2023-05-14T16:47:53.101Z,99556.09
2023-05-14T16:50:20.022Z,99550.72
2023-05-14T16:52:46.682Z,99551.78
2023-05-14T16:55:13.498Z,99549.09
2023-05-14T16:57:40.233Z,99541.19
2023-05-14T17:00:07.675Z,99546.56
2023-05-14T17:02:34.562Z,99548.81
2023-05-14T17:05:01.515Z,99537.81
2023-05-14T17:07:28.279Z,99544.19
2023-05-14T17:09:55.168Z,99545.22
2023-05-14T17:12:21.971Z,99555.31
2023-05-14T17:14:48.728Z,99548.47
2023-05-14T17:17:15.470Z,99548.19
2023-05-14T17:19:42.401Z,99546.72
2023-05-14T17:22:09.126Z,99548.75
2023-05-14T17:24:36.688Z,99555.16
2023-05-14T17:27:03.859Z,99544.75
2023-05-14T17:29:30.696Z,99545.97
2023-05-14T17:32:00.753Z,99550.72
2023-05-14T17:34:27.652Z,99552.53
2023-05-14T17:36:54.315Z,99549.84
2023-05-14T17:39:20.964Z,99553.75
2023-05-14T17:41:47.691Z,99554.94
2023-05-14T17:44:14.380Z,99563.84
2023-05-14T17:46:41.874Z,99555.16
2023-05-14T17:49:08.703Z,99555.31
2023-05-14T17:51:35.393Z,99559.22
2023-05-14T17:54:02.154Z,99553.84
2023-05-14T17:57:24.129Z,99558.00
2023-05-14T17:59:50.775Z,99564.69
2023-05-14T18:02:17.510Z,99552.47
2023-05-14T18:04:45.468Z,99558.00
2023-05-14T18:07:12.273Z,99561.91
2023-05-14T18:09:38.985Z,99564.94
2023-05-14T18:12:06.096Z,99572.34
2023-05-14T18:14:32.882Z,99572.34
2023-05-14T18:16:59.661Z,99567.34
2023-05-14T18:19:26.415Z,99571.22
2023-05-14T18:21:55.334Z,99570.78
2023-05-14T18:24:22.302Z,99570.94
2023-05-14T18:26:49.122Z,99567.44
2023-05-14T18:29:15.988Z,99571.31
2023-05-14T18:31:42.638Z,99577.06
2023-05-14T18:34:09.361Z,99578.25
2023-05-14T18:36:36.058Z,99581.31
2023-05-14T18:39:02.827Z,99574.47
2023-05-14T18:41:29.826Z,99578.97
2023-05-14T18:43:57.913Z,99579.50
2023-05-14T18:46:24.943Z,99585.69
2023-05-14T18:48:51.669Z,99581.34
2023-05-14T18:51:18.397Z,99581.53
2023-05-14T18:53:45.224Z,99588.91
2023-05-14T18:56:12.068Z,99586.25
2023-05-14T18:58:38.784Z,99590.94
2023-05-14T19:01:05.619Z,99583.28
2023-05-14T19:03:32.499Z,99588.81
2023-05-14T19:05:59.541Z,99591.84
2023-05-14T19:08:26.183Z,99597.38
2023-05-14T19:10:53.004Z,99594.59
2023-05-14T19:13:19.693Z,99594.41
2023-05-14T19:15:46.426Z,99593.41
2023-05-14T19:18:13.963Z,99601.81
2023-05-14T19:20:40.871Z,99597.66
2023-05-14T19:23:07.841Z,99606.69
2023-05-14T19:25:34.760Z,99608.69
2023-05-14T19:28:03.722Z,99613.44
2023-05-14T19:30:31.302Z,99618.13
2023-05-14T19:32:58.362Z,99618.97
2023-05-14T19:35:25.759Z,99609.44
2023-05-14T19:37:52.987Z,99605.94
2023-05-14T19:40:19.915Z,99605.94
2023-05-14T19:42:46.914Z,99612.28
2023-05-14T19:45:13.779Z,99603.72
2023-05-14T19:47:40.702Z,99610.75
2023-05-14T19:50:08.542Z,99602.22
2023-05-14T19:52:35.423Z,99610.09
2023-05-14T19:55:02.172Z,99611.28
2023-05-14T19:57:29.328Z,99612.66
2023-05-14T19:59:56.150Z,99618.53
2023-05-14T20:02:23.124Z,99610.69
2023-05-14T20:04:50.040Z,99615.53
2023-05-14T20:07:17.374Z,99607.66
2023-05-14T20:09:44.300Z,99609.97
2023-05-14T20:12:12.894Z,99612.47
2023-05-14T20:14:41.096Z,99603.94
2023-05-14T20:17:07.946Z,99611.00
2023-05-14T20:19:34.836Z,99610.50
2023-05-14T20:22:01.533Z,99612.34
2023-05-14T20:24:28.662Z,99611.34
2023-05-14T20:26:56.679Z,99604.13
2023-05-14T20:29:23.430Z,99603.00
2023-05-14T20:31:50.319Z,99602.94
2023-05-14T20:34:17.045Z,99607.78
2023-05-14T20:36:44.418Z,99612.84
2023-05-14T20:39:11.704Z,99605.47
2023-05-14T20:41:38.491Z,99597.09
2023-05-14T20:44:05.295Z,99591.19
2023-05-14T20:46:32.093Z,99600.38
2023-05-14T20:49:00.671Z,99600.25
2023-05-14T20:51:27.352Z,99589.06
2023-05-14T20:53:54.099Z,99598.41
2023-05-14T20:56:20.796Z,99592.03
2023-05-14T20:58:47.614Z,99596.41
2023-05-14T21:01:14.524Z,99593.28
2023-05-14T21:03:41.367Z,99601.81
2023-05-14T21:06:08.263Z,99601.38
2023-05-14T21:08:35.793Z,99606.78
2023-05-14T21:11:02.625Z,99615.09
2023-05-14T21:13:29.398Z,99613.09
2023-05-14T21:15:56.197Z,99614.59
2023-05-14T21:18:26.600Z,99611.91
2023-05-14T21:20:53.389Z,99605.69
2023-05-14T21:23:20.564Z,99616.84
2023-05-14T21:25:47.300Z,99600.31
2023-05-14T21:28:14.145Z,99611.81
2023-05-14T21:30:40.920Z,99602.34
2023-05-14T21:33:07.712Z,99610.88
2023-05-14T21:35:34.541Z,99614.75
2023-05-14T21:38:01.219Z,99607.25
2023-05-14T21:40:27.948Z,99607.44
2023-05-14T21:42:54.619Z,99604.91
2023-05-14T21:45:23.389Z,99600.41
2023-05-14T21:47:50.596Z,99598.06
2023-05-14T21:50:17.418Z,99592.72
2023-05-14T21:52:44.139Z,99586.84
2023-05-14T21:55:10.987Z,99580.97
2023-05-14T21:57:37.838Z,99583.28
2023-05-14T22:00:10.025Z,99574.88
2023-05-14T22:02:36.868Z,99579.13
2023-05-14T22:05:03.778Z,99578.75
2023-05-14T22:07:31.731Z,99575.25
2023-05-14T22:09:58.585Z,99574.22
2023-05-14T22:12:26.201Z,99573.94
2023-05-14T22:14:53.083Z,99578.09
2023-05-14T22:17:19.865Z,99570.88
2023-05-14T22:19:46.578Z,99562.38
2023-05-14T22:22:13.254Z,99556.06
2023-05-14T22:24:40.165Z,99555.28
2023-05-14T22:27:07.011Z,99551.59
2023-05-14T22:29:34.137Z,99546.09
2023-05-14T22:32:01.706Z,99536.53
2023-05-14T22:34:28.593Z,99543.75
2023-05-14T22:36:55.366Z,99533.75
2023-05-14T22:39:22.180Z,99535.94
2023-05-14T22:41:54.851Z,99531.25
2023-05-14T22:44:22.450Z,99538.13
2023-05-14T22:46:49.433Z,99531.44
2023-05-14T22:49:16.671Z,99534.56
2023-05-14T22:51:43.706Z,99545.66
2023-05-14T22:54:10.740Z,99539.63
2023-05-14T22:56:38.023Z,99537.63
2023-05-14T22:59:04.861Z,99542.16
2023-05-14T23:01:32.093Z,99532.84
2023-05-14T23:03:59.012Z,99536.03
2023-05-14T23:06:25.752Z,99536.34
2023-05-14T23:08:52.537Z,99532.47
2023-05-14T23:11:19.356Z,99532.63
2023-05-14T23:13:46.220Z,99535.97
2023-05-14T23:16:13.008Z,99535.16
2023-05-14T23:18:40.021Z,99535.16
2023-05-14T23:21:06.978Z,99533.00
2023-05-14T23:23:33.788Z,99534.47
2023-05-14T23:26:00.642Z,99543.88
2023-05-14T23:28:27.411Z,99538.19
2023-05-14T23:30:54.290Z,99531.34
2023-05-14T23:33:21.057Z,99539.72
2023-05-14T23:35:48.431Z,99540.53
2023-05-14T23:38:15.405Z,99534.38
2023-05-14T23:40:42.315Z,99540.91
2023-05-14T23:43:09.077Z,99531.19
2023-05-14T23:45:35.914Z,99531.22
2023-05-14T23:48:02.825Z,99543.41
2023-05-14T23:50:29.706Z,99544.56
2023-05-14T23:52:56.461Z,99534.06
2023-05-14T23:55:23.522Z,99544.41
2023-05-14T23:57:51.153Z,99534.06
